Time;durP1;ratioP1;P1;durP2;ratioP2;P2;SDS_P1;SDS_P2;PMS_P1;PMS_P2;Temp;Humidity;BMP_temperature;BMP_pressure;BME280_temperature;BME280_humidity;BME280_pressure;Samples;Min_cycle;Max_cycle;Signal;HPM_P1;HPM_P2
2022/09/07 00:01:00;;;;;;;2.10;1.80;;;;;;;20.44;53.11;98600.13;5137774;27;40281;-74
2022/09/07 00:03:28;;;;;;;1.70;1.60;;;;;;;20.40;53.34;98606.81;5137377;27;42829;-75
2022/09/07 00:05:56;;;;;;;1.57;1.30;;;;;;;20.36;53.67;98604.66;5138030;27;41134;-75
2022/09/07 00:08:26;;;;;;;1.97;1.70;;;;;;;20.32;53.36;98614.00;5137499;27;39719;-74
2022/09/07 00:10:55;;;;;;;2.67;2.00;;;;;;;20.28;53.52;98616.16;5120310;27;42366;-75
2022/09/07 00:13:25;;;;;;;1.70;1.60;;;;;;;20.24;53.56;98625.59;5119902;27;42513;-75
2022/09/07 00:15:53;;;;;;;1.73;1.40;;;;;;;20.21;53.60;98625.91;5137602;27;41110;-75
2022/09/07 00:18:22;;;;;;;3.47;1.93;;;;;;;20.18;53.42;98626.22;5137230;27;39949;-75
2022/09/07 00:20:58;;;;;;;2.10;1.63;;;;;;;20.13;54.04;98623.19;5119556;27;40211;-74
2022/09/07 00:23:27;;;;;;;2.17;1.40;;;;;;;20.10;53.42;98618.13;5119970;27;41306;-76
2022/09/07 00:25:59;;;;;;;1.67;1.50;;;;;;;20.08;53.29;98620.97;5119822;27;42583;-75
2022/09/07 00:28:27;;;;;;;1.77;1.60;;;;;;;19.92;53.67;98603.91;5135465;27;40833;-74
2022/09/07 00:30:55;;;;;;;2.20;2.00;;;;;;;20.01;53.69;98624.47;5155845;27;41804;-76
2022/09/07 00:33:25;;;;;;;1.80;1.70;;;;;;;19.87;53.76;98611.66;5153933;27;42779;-74
2022/09/07 00:35:54;;;;;;;1.90;1.80;;;;;;;19.91;53.51;98629.13;5120170;27;44113;-76
2022/09/07 00:38:21;;;;;;;2.43;2.10;;;;;;;19.86;53.84;98626.09;5136930;27;40163;-74
2022/09/07 00:40:49;;;;;;;2.83;2.17;;;;;;;19.86;53.57;98642.22;5137254;27;40637;-75
2022/09/07 00:43:29;;;;;;;2.53;1.83;;;;;;;19.81;53.42;98633.75;5136559;27;42546;-73
2022/09/07 00:45:57;;;;;;;1.43;1.33;;;;;;;19.76;53.62;98631.56;5119884;27;41266;-74
2022/09/07 00:48:31;;;;;;;1.87;1.70;;;;;;;19.72;53.60;98628.34;5119544;27;38990;-75
2022/09/07 00:51:03;;;;;;;2.90;1.70;;;;;;;19.59;53.69;98601.06;5133864;27;41733;-74
2022/09/07 00:53:34;;;;;;;2.00;1.63;;;;;;;19.66;53.75;98617.38;5135130;27;42673;-74
2022/09/07 00:56:03;;;;;;;1.93;1.60;;;;;;;19.63;54.06;98610.50;5134123;27;43253;-75
2022/09/07 00:58:34;;;;;;;2.70;1.77;;;;;;;19.61;53.96;98606.28;5136933;27;40850;-76
2022/09/07 01:01:02;;;;;;;1.73;1.63;;;;;;;19.60;54.11;98610.81;5152497;27;41778;-74
2022/09/07 01:03:38;;;;;;;2.20;1.87;;;;;;;19.56;54.22;98598.69;5136135;27;44946;-74
2022/09/07 01:06:12;;;;;;;1.60;1.50;;;;;;;19.58;54.30;98596.69;5136716;27;41989;-74
2022/09/07 01:08:41;;;;;;;2.20;1.60;;;;;;;19.60;54.18;98589.34;5119271;27;42147;-78
2022/09/07 01:11:09;;;;;;;1.63;1.40;;;;;;;19.63;53.97;98591.72;5136418;27;40860;-74
2022/09/07 01:13:38;;;;;;;1.63;1.53;;;;;;;19.66;53.72;98594.06;5119156;27;44389;-76
2022/09/07 01:16:12;;;;;;;1.87;1.60;;;;;;;19.68;53.90;98597.44;5136227;27;42769;-75
2022/09/07 01:18:55;;;;;;;1.87;1.70;;;;;;;19.71;54.09;98586.38;5134599;27;41809;-74
2022/09/07 01:21:27;;;;;;;3.73;1.50;;;;;;;19.73;54.13;98589.75;5151872;27;41383;-74
2022/09/07 01:24:29;;;;;;;1.70;1.60;;;;;;;19.73;54.35;98584.38;5118994;27;42106;-74
2022/09/07 01:27:15;;;;;;;2.03;1.37;;;;;;;19.70;54.50;98581.16;5136394;27;41108;-75
2022/09/07 01:29:55;;;;;;;2.83;1.70;;;;;;;19.65;54.78;98581.66;5154626;27;39924;-75
2022/09/07 01:32:36;;;;;;;2.70;1.90;;;;;;;19.59;55.23;98574.22;5136570;27;40373;-75
2022/09/07 01:35:09;;;;;;;2.83;2.07;;;;;;;19.55;55.27;98590.78;5135640;27;44587;-75
2022/09/07 01:37:48;;;;;;;2.20;2.00;;;;;;;19.50;56.18;98593.97;5119318;27;41467;-74
2022/09/07 01:40:21;;;;;;;2.27;1.97;;;;;;;19.45;56.23;98587.34;5133107;27;39836;-75
2022/09/07 01:42:54;;;;;;;2.20;2.00;;;;;;;19.39;57.82;98580.78;5150994;27;41729;-74
2022/09/07 01:45:29;;;;;;;2.93;2.03;;;;;;;19.37;57.42;98583.63;5133185;27;42687;-74
2022/09/07 01:48:01;;;;;;;2.77;2.10;;;;;;;19.36;56.65;98594.53;5133178;27;42011;-75
2022/09/07 01:50:33;;;;;;;3.30;2.30;;;;;;;19.30;56.30;98597.81;5133162;27;39715;-75
2022/09/07 01:53:06;;;;;;;2.27;2.00;;;;;;;19.26;56.71;98583.03;5133396;27;41823;-75
2022/09/07 01:55:37;;;;;;;1.77;1.67;;;;;;;19.25;57.05;98567.94;5133248;27;42703;-75
2022/09/07 01:58:11;;;;;;;4.03;2.00;;;;;;;19.35;57.52;98592.84;5133001;27;42427;-75
2022/09/07 02:00:49;;;;;;;1.90;1.80;;;;;;;19.33;56.98;98592.13;5132930;27;41011;-75
2022/09/07 02:03:23;;;;;;;2.20;1.73;;;;;;;19.29;56.53;98585.38;5117978;27;41103;-75
2022/09/07 02:05:57;;;;;;;2.30;2.10;;;;;;;19.36;56.66;98608.78;5118887;27;42850;-75
2022/09/07 02:08:29;;;;;;;4.20;2.50;;;;;;;19.37;56.50;98609.63;5135050;27;41148;-74
2022/09/07 02:11:02;;;;;;;2.73;1.67;;;;;;;19.34;57.05;98600.03;5135897;27;39814;-74
2022/09/07 02:13:35;;;;;;;2.37;2.13;;;;;;;19.36;56.93;98611.47;5152060;27;42687;-74
2022/09/07 02:16:09;;;;;;;2.03;1.83;;;;;;;19.37;56.44;98609.63;5135972;27;42786;-75
2022/09/07 02:18:42;;;;;;;2.30;2.10;;;;;;;19.36;56.40;98610.63;5151911;27;43172;-75
2022/09/07 02:21:11;;;;;;;2.13;1.90;;;;;;;19.36;56.35;98606.09;5135998;27;39160;-76
2022/09/07 02:23:44;;;;;;;1.90;1.80;;;;;;;19.37;56.36;98604.25;5135410;27;41879;-75
2022/09/07 02:26:18;;;;;;;2.43;2.00;;;;;;;19.35;56.41;98606.25;5150911;27;43534;-76
2022/09/07 02:28:46;;;;;;;2.23;1.33;;;;;;;19.39;56.18;98607.63;5133517;27;43267;-76
2022/09/07 02:31:15;;;;;;;1.63;1.53;;;;;;;19.40;56.27;98614.69;5135441;27;40149;-76
2022/09/07 02:33:43;;;;;;;1.90;1.80;;;;;;;19.42;55.90;98611.81;5117155;27;43461;-77
2022/09/07 02:36:13;;;;;;;1.77;1.67;;;;;;;19.33;56.11;98590.31;5118301;27;42970;-75
2022/09/07 02:38:41;;;;;;;2.13;1.90;;;;;;;19.45;56.08;98607.00;5117854;27;42034;-75
2022/09/07 02:41:28;;;;;;;2.50;1.73;;;;;;;19.46;56.50;98602.47;5135416;27;39925;-75
2022/09/07 02:43:57;;;;;;;2.73;1.50;;;;;;;19.44;56.29;98610.69;5117698;27;41717;-75
2022/09/07 02:46:38;;;;;;;2.53;2.10;;;;;;;19.41;56.41;98616.34;5134934;27;43716;-76
2022/09/07 02:49:15;;;;;;;2.30;2.10;;;;;;;19.38;56.65;98616.69;5151575;27;42040;-76
2022/09/07 02:51:53;;;;;;;3.10;2.20;;;;;;;19.35;57.66;98611.63;5117958;27;41473;-75
2022/09/07 02:54:37;;;;;;;2.43;2.00;;;;;;;19.30;57.89;98609.41;5151924;27;41880;-76
2022/09/07 02:57:15;;;;;;;2.67;2.00;;;;;;;19.29;58.14;98612.25;5131897;27;42944;-75
2022/09/07 02:59:54;;;;;;;2.33;2.10;;;;;;;19.29;58.38;98609.56;5134340;27;41984;-75
2022/09/07 03:02:29;;;;;;;2.90;1.80;;;;;;;19.15;57.75;98588.66;5150385;27;41787;-75
2022/09/07 03:05:05;;;;;;;2.10;1.80;;;;;;;19.30;58.12;98624.66;5117631;27;41717;-76
2022/09/07 03:07:39;;;;;;;1.40;1.30;;;;;;;19.30;57.90;98630.03;5134761;27;41345;-76
2022/09/07 03:10:08;;;;;;;2.93;1.90;;;;;;;19.27;57.34;98628.53;5132284;27;43141;-76
2022/09/07 03:12:45;;;;;;;2.00;1.80;;;;;;;19.34;57.79;98636.78;5117712;27;38911;-75
2022/09/07 03:15:13;;;;;;;2.03;1.83;;;;;;;19.35;57.60;98659.97;5150341;27;42755;-76
2022/09/07 03:17:44;;;;;;;2.00;1.80;;;;;;;19.23;57.73;98629.84;5134319;27;42507;-77
2022/09/07 03:20:13;;;;;;;3.20;2.03;;;;;;;19.40;58.12;98638.03;5150133;27;42221;-76
2022/09/07 03:22:41;;;;;;;2.73;1.90;;;;;;;19.33;58.39;98613.63;5117325;27;39013;-76
2022/09/07 03:25:09;;;;;;;2.67;2.20;;;;;;;19.49;58.80;98629.06;5153265;27;41900;-75
2022/09/07 03:27:37;;;;;;;2.23;2.03;;;;;;;19.55;58.64;98629.25;5134075;27;41796;-76
2022/09/07 03:30:07;;;;;;;3.27;1.90;;;;;;;19.59;58.36;98622.56;5133877;27;43015;-76
2022/09/07 03:32:37;;;;;;;2.10;2.00;;;;;;;19.62;58.17;98624.94;5134504;27;41477;-75
2022/09/07 03:35:09;;;;;;;2.40;2.00;;;;;;;19.63;58.39;98626.63;5134381;27;41495;-75
2022/09/07 03:37:37;;;;;;;1.80;1.70;;;;;;;19.61;58.25;98638.53;5153270;27;42487;-76
2022/09/07 03:40:07;;;;;;;2.70;2.40;;;;;;;19.59;58.54;98636.00;5134264;27;42342;-76
2022/09/07 03:42:35;;;;;;;2.33;2.13;;;;;;;19.59;58.78;98636.00;5134872;27;39641;-76
2022/09/07 03:45:04;;;;;;;2.10;1.90;;;;;;;19.57;59.57;98632.63;5134497;27;42714;-76
2022/09/07 03:47:33;;;;;;;4.43;2.40;;;;;;;19.56;60.68;98630.94;5152798;27;43829;-75
2022/09/07 03:50:01;;;;;;;2.83;2.60;;;;;;;19.56;61.38;98643.53;5116868;27;41421;-75
2022/09/07 03:52:31;;;;;;;2.57;2.37;;;;;;;19.56;61.54;98648.88;5134360;27;41845;-76
2022/09/07 03:54:59;;;;;;;2.40;2.17;;;;;;;19.56;62.14;98630.09;5116711;27;42326;-76
2022/09/07 03:57:26;;;;;;;2.97;2.53;;;;;;;19.55;62.07;98631.94;5134257;27;42893;-75
2022/09/07 03:59:54;;;;;;;2.30;2.10;;;;;;;19.55;62.39;98631.94;5116527;27;41215;-75
2022/09/07 04:02:22;;;;;;;3.07;2.30;;;;;;;19.57;62.30;98637.16;5116865;27;39483;-74
2022/09/07 04:04:50;;;;;;;2.23;1.93;;;;;;;19.59;61.88;98644.06;5116701;27;40245;-75
2022/09/07 04:07:18;;;;;;;2.03;1.93;;;;;;;19.63;62.00;98621.25;5119298;27;43373;-75
2022/09/07 04:09:50;;;;;;;4.13;2.80;;;;;;;19.65;62.32;98623.78;5137468;27;43254;-75
2022/09/07 04:12:18;;;;;;;2.60;2.40;;;;;;;19.67;62.76;98617.22;5120227;27;40258;-75
2022/09/07 04:14:46;;;;;;;5.00;2.43;;;;;;;19.71;63.15;98618.59;5137170;27;40628;-75
2022/09/07 04:17:13;;;;;;;2.33;2.13;;;;;;;19.53;62.77;98587.44;5156082;27;43851;-75
2022/09/07 04:19:41;;;;;;;2.40;2.20;;;;;;;19.59;62.90;98609.13;5156249;27;43180;-75
2022/09/07 04:22:09;;;;;;;4.47;2.87;;;;;;;19.15;64.24;98537.66;5138326;27;40243;-79
2022/09/07 04:24:37;;;;;;;5.03;2.43;;;;;;;19.45;64.50;98590.88;5137912;27;42146;-83
2022/09/07 04:27:06;;;;;;;2.63;2.43;;;;;;;19.43;64.85;98584.81;5156681;27;43681;-78
2022/09/07 04:29:34;;;;;;;2.67;2.47;;;;;;;19.43;65.38;98587.50;5155712;27;42236;-78
2022/09/07 04:32:03;;;;;;;2.63;2.00;;;;;;;19.43;64.88;98594.72;5120599;27;39977;-78
2022/09/07 04:34:31;;;;;;;2.13;2.00;;;;;;;19.43;65.28;98590.19;5137238;27;42658;-78
2022/09/07 04:36:58;;;;;;;2.33;2.13;;;;;;;19.42;65.46;98593.88;5156451;27;43581;-74
2022/09/07 04:39:26;;;;;;;3.30;2.00;;;;;;;19.44;65.22;98582.97;5120261;27;42287;-81
2022/09/07 04:41:55;;;;;;;3.37;2.90;;;;;;;19.50;67.64;98563.59;5137976;27;41320;-77
2022/09/07 04:44:24;;;;;;;3.17;2.50;;;;;;;19.56;67.73;98549.50;5137650;27;41688;-82
2022/09/07 04:46:52;;;;;;;2.70;2.50;;;;;;;19.62;66.69;98555.09;5156227;27;42671;-81
2022/09/07 04:49:20;;;;;;;2.60;2.40;;;;;;;19.68;67.10;98546.38;5155917;27;42221;-77
2022/09/07 04:51:48;;;;;;;5.30;2.70;;;;;;;19.61;68.31;98542.66;5137955;27;40328;-79
2022/09/07 04:54:16;;;;;;;3.77;2.80;;;;;;;19.58;67.66;98552.88;5137161;27;42624;-80
2022/09/07 04:56:44;;;;;;;3.13;2.40;;;;;;;19.62;67.05;98544.34;5137289;27;42908;-76
2022/09/07 04:59:12;;;;;;;4.30;3.23;;;;;;;19.71;66.93;98542.53;5137502;27;43245;-79
2022/09/07 05:01:41;;;;;;;2.63;2.43;;;;;;;19.77;66.64;98536.53;5156386;27;40043;-77
2022/09/07 05:04:09;;;;;;;4.43;3.77;;;;;;;19.83;66.92;98524.28;5136687;27;40736;-78
2022/09/07 05:06:37;;;;;;;5.33;3.43;;;;;;;19.86;66.79;98534.72;5155857;27;42587;-77
2022/09/07 05:09:05;;;;;;;3.87;2.90;;;;;;;19.90;67.14;98536.06;5137232;27;43235;-82
2022/09/07 05:11:32;;;;;;;2.50;2.30;;;;;;;19.96;66.51;98548.84;5155951;27;40002;-79
2022/09/07 05:14:03;;;;;;;3.23;2.93;;;;;;;19.99;66.40;98556.59;5136842;27;41046;-80
2022/09/07 05:16:32;;;;;;;3.77;3.13;;;;;;;20.04;66.20;98575.75;5137945;27;42382;-84
2022/09/07 05:19:03;;;;;;;4.00;2.40;;;;;;;20.04;66.64;98581.13;5154908;27;43347;-76
2022/09/07 05:21:33;;;;;;;3.03;2.73;;;;;;;20.11;65.89;98592.09;5134957;27;40268;-74
2022/09/07 05:24:02;;;;;;;2.83;2.63;;;;;;;20.16;65.89;98603.19;5156052;27;41787;-78
2022/09/07 05:26:32;;;;;;;3.03;2.60;;;;;;;20.19;66.14;98595.63;5156274;27;42758;-73
2022/09/07 05:29:02;;;;;;;3.10;2.47;;;;;;;20.24;65.40;98606.75;5118979;27;41443;-77
2022/09/07 05:31:31;;;;;;;3.07;2.57;;;;;;;20.31;65.29;98618.53;5130407;27;40003;-76
2022/09/07 05:34:01;;;;;;;2.73;2.50;;;;;;;20.39;64.93;98623.16;5139858;27;42713;-77
2022/09/07 05:36:30;;;;;;;3.40;2.90;;;;;;;20.45;64.42;98641.31;5092884;27;42796;-79
2022/09/07 05:38:59;;;;;;;2.70;2.17;;;;;;;20.42;63.92;98629.03;5106443;27;41167;-79
2022/09/07 05:41:27;;;;;;;3.07;1.97;;;;;;;20.59;63.96;98653.28;5107494;27;39092;-76
2022/09/07 05:43:55;;;;;;;2.10;1.90;;;;;;;20.64;63.94;98657.19;5127262;27;42428;-79
2022/09/07 05:46:24;;;;;;;2.47;2.10;;;;;;;20.73;63.75;98660.72;5130371;27;42793;-76
2022/09/07 05:48:52;;;;;;;2.20;2.00;;;;;;;20.80;63.66;98654.50;5129521;27;42304;-80
2022/09/07 05:51:21;;;;;;;2.47;2.27;;;;;;;20.89;63.16;98654.53;5150507;27;40929;-78
2022/09/07 05:53:49;;;;;;;5.77;2.40;;;;;;;20.99;63.41;98658.75;5126785;27;40816;-77
2022/09/07 05:56:17;;;;;;;2.60;2.30;;;;;;;21.13;62.81;98657.25;5149433;27;43039;-77
2022/09/07 05:58:48;;;;;;;4.00;2.47;;;;;;;21.27;62.42;98655.75;5129299;27;42434;-74
2022/09/07 06:01:16;;;;;;;4.50;2.77;;;;;;;21.41;62.93;98652.38;5107218;27;40847;-75
2022/09/07 06:03:45;;;;;;;2.83;2.60;;;;;;;21.32;62.53;98616.53;5136878;27;42943;-76
2022/09/07 06:06:14;;;;;;;2.60;2.40;;;;;;;21.63;62.17;98640.09;5114826;27;43342;-76
2022/09/07 06:08:49;;;;;;;4.97;2.60;;;;;;;21.79;62.27;98640.88;5120731;27;42573;-76
2022/09/07 06:11:19;;;;;;;2.90;2.67;;;;;;;21.95;61.71;98653.50;5118225;27;39904;-76
2022/09/07 06:13:47;;;;;;;3.13;2.83;;;;;;;22.04;61.45;98649.78;5134530;27;40993;-75
2022/09/07 06:16:17;;;;;;;3.87;3.10;;;;;;;22.15;60.84;98657.50;5135734;27;44102;-75
2022/09/07 06:18:47;;;;;;;4.50;2.77;;;;;;;22.20;60.99;98657.81;5116900;27;41194;-75
2022/09/07 06:21:16;;;;;;;2.90;2.53;;;;;;;22.24;60.61;98654.78;5118386;27;41116;-76
2022/09/07 06:23:47;;;;;;;5.17;2.83;;;;;;;22.14;60.66;98631.53;5152895;27;42653;-75
2022/09/07 06:26:16;;;;;;;3.40;2.70;;;;;;;22.24;60.56;98650.22;5135434;27;42074;-75
2022/09/07 06:28:45;;;;;;;2.73;2.43;;;;;;;21.91;60.71;98605.47;5117042;27;41474;-75
2022/09/07 06:31:15;;;;;;;5.00;2.67;;;;;;;22.37;60.57;98661.31;5116738;27;39545;-75
2022/09/07 06:33:46;;;;;;;3.30;3.00;;;;;;;22.57;60.04;98657.16;5133388;27;41788;-78
2022/09/07 06:36:16;;;;;;;2.80;2.27;;;;;;;22.79;59.46;98660.09;5132006;27;42830;-76
2022/09/07 06:38:45;;;;;;;3.23;2.83;;;;;;;23.01;59.22;98664.66;5133682;27;43578;-74
2022/09/07 06:41:16;;;;;;;5.40;3.03;;;;;;;23.19;58.50;98665.22;5134678;27;39497;-79
2022/09/07 06:43:44;;;;;;;4.37;2.87;;;;;;;23.33;58.13;98663.59;5153236;27;41467;-76
2022/09/07 06:46:13;;;;;;;3.97;3.27;;;;;;;23.62;57.34;98669.09;5118318;27;41724;-77
2022/09/07 06:48:41;;;;;;;4.10;2.80;;;;;;;23.91;56.66;98673.72;5133867;27;42277;-79
2022/09/07 06:51:12;;;;;;;3.80;2.93;;;;;;;24.26;55.82;98677.56;5135127;27;40777;-83
2022/09/07 06:53:40;;;;;;;3.17;2.87;;;;;;;24.47;55.47;98668.72;5134784;27;41881;-78
2022/09/07 06:56:10;;;;;;;5.53;2.93;;;;;;;24.69;54.81;98694.81;5134629;27;42913;-79
2022/09/07 06:58:40;;;;;;;5.20;2.80;;;;;;;24.77;54.31;98695.72;5134139;27;41879;-75
2022/09/07 07:01:12;;;;;;;4.67;2.40;;;;;;;24.83;53.39;98703.09;5116923;27;40045;-74
2022/09/07 07:03:40;;;;;;;4.87;2.43;;;;;;;24.85;53.06;98690.22;5116784;27;40572;-74
2022/09/07 07:06:09;;;;;;;4.07;2.40;;;;;;;24.78;53.02;98667.59;5134422;27;42095;-75
2022/09/07 07:08:39;;;;;;;2.93;2.63;;;;;;;25.09;52.73;98697.19;5116303;27;41939;-75
2022/09/07 07:11:09;;;;;;;2.27;2.07;;;;;;;25.58;51.81;98697.25;5149500;27;40889;-75
2022/09/07 07:13:40;;;;;;;4.30;2.27;;;;;;;26.38;50.73;98702.25;5152270;27;41924;-75
2022/09/07 07:16:10;;;;;;;4.03;2.17;;;;;;;26.99;49.58;98711.31;5134070;27;41042;-74
2022/09/07 07:18:39;;;;;;;2.30;2.10;;;;;;;27.44;48.22;98722.53;5116329;27;40815;-77
2022/09/07 07:21:08;;;;;;;2.80;1.90;;;;;;;27.32;48.14;98718.75;5134636;27;39794;-80
2022/09/07 07:23:36;;;;;;;1.90;1.70;;;;;;;26.99;48.26;98721.38;5133994;27;42868;-77
2022/09/07 07:26:06;;;;;;;2.27;1.90;;;;;;;27.10;48.17;98724.31;5117282;27;42967;-78
2022/09/07 07:28:34;;;;;;;4.50;2.23;;;;;;;27.43;47.64;98724.41;5133748;27;41710;-78
2022/09/07 07:31:05;;;;;;;3.87;2.00;;;;;;;27.73;46.56;98730.31;5117621;27;38942;-77
2022/09/07 07:33:35;;;;;;;2.40;2.00;;;;;;;28.07;46.58;98729.25;5115846;27;40842;-77
2022/09/07 07:36:11;;;;;;;2.33;1.87;;;;;;;28.20;45.73;98729.28;5134841;27;42967;-77
2022/09/07 07:38:39;;;;;;;1.87;1.70;;;;;;;28.26;45.25;98732.22;5116692;27;41393;-76
2022/09/07 07:41:07;;;;;;;3.40;2.13;;;;;;;28.29;45.34;98729.91;5153675;27;40979;-80
2022/09/07 07:43:35;;;;;;;2.60;1.70;;;;;;;28.18;45.41;98720.50;5137737;27;41768;-77
2022/09/07 07:46:05;;;;;;;3.63;1.87;;;;;;;28.44;44.96;98726.94;5121109;27;44531;-81
2022/09/07 07:48:34;;;;;;;2.00;1.80;;;;;;;29.19;44.25;98741.78;5137744;27;43326;-79
2022/09/07 07:51:04;;;;;;;2.13;1.50;;;;;;;30.39;41.58;98759.00;5156252;27;39939;-78
2022/09/07 07:53:34;;;;;;;3.10;2.00;;;;;;;31.97;38.97;98768.78;5119865;27;40282;-77
2022/09/07 07:56:03;;;;;;;2.90;1.77;;;;;;;33.43;35.97;98791.59;5137317;27;41683;-75
2022/09/07 07:58:32;;;;;;;2.90;1.60;;;;;;;33.83;35.01;98789.66;5155065;27;43234;-76
2022/09/07 08:01:02;;;;;;;2.00;1.70;;;;;;;34.43;33.97;98794.53;5155815;27;40885;-78
2022/09/07 08:03:35;;;;;;;1.93;1.60;;;;;;;35.17;32.60;98796.97;5136703;27;42301;-81
2022/09/07 08:06:08;;;;;;;2.03;1.83;;;;;;;35.11;33.24;98768.53;5120572;27;42945;-78
2022/09/07 08:08:37;;;;;;;1.90;1.60;;;;;;;34.94;32.65;98785.13;5154946;27;42195;-76
2022/09/07 08:11:07;;;;;;;3.03;1.80;;;;;;;34.67;33.73;98794.31;5155688;27;39897;-79
2022/09/07 08:13:35;;;;;;;2.23;2.03;;;;;;;34.46;33.27;98796.78;5136303;27;40442;-77
2022/09/07 08:16:04;;;;;;;2.77;1.60;;;;;;;34.51;33.49;98783.09;5120338;27;42886;-78
2022/09/07 08:18:35;;;;;;;3.60;1.67;;;;;;;34.72;33.45;98797.16;5120087;27;41296;-79
2022/09/07 08:21:04;;;;;;;3.70;1.50;;;;;;;34.54;32.79;98806.50;5156415;27;39679;-80
2022/09/07 08:23:32;;;;;;;4.13;1.40;;;;;;;34.25;32.50;98797.47;5155267;27;41664;-81
2022/09/07 08:26:01;;;;;;;4.43;1.60;;;;;;;34.40;32.25;98805.19;5137175;27;42811;-78
2022/09/07 08:28:31;;;;;;;3.80;1.40;;;;;;;34.64;32.48;98794.81;5135940;27;43280;-78
2022/09/07 08:30:59;;;;;;;2.33;1.30;;;;;;;34.79;32.18;98795.91;5155718;27;39890;-75
2022/09/07 08:33:29;;;;;;;1.20;1.10;;;;;;;35.11;31.91;98807.09;5154024;27;42361;-76
2022/09/07 08:36:00;;;;;;;5.33;1.30;;;;;;;35.40;30.97;98782.94;5103126;27;42891;-82
2022/09/07 08:38:30;;;;;;;2.70;1.20;;;;;;;36.11;30.12;98826.94;5120154;27;41180;-80
2022/09/07 08:40:58;;;;;;;3.63;1.90;;;;;;;36.68;29.69;98816.97;5120048;27;40272;-79
2022/09/07 08:43:38;;;;;;;2.35;1.40;;;;;;;37.42;28.76;98826.22;5154807;27;41762;-77
2022/09/07 08:46:14;;;;;;;3.85;1.48;;;;;;;38.12;28.07;98827.53;5119812;27;44077;-78
2022/09/07 08:48:42;;;;;;;2.17;1.50;;;;;;;39.20;26.63;98833.53;5152736;27;42117;-78
2022/09/07 08:51:18;;;;;;;5.38;1.13;;;;;;;39.29;26.46;98823.53;5136438;27;39818;-76
2022/09/07 08:53:49;;;;;;;2.38;1.40;;;;;;;40.07;25.64;98845.88;5151214;27;41743;-77
2022/09/07 08:56:22;;;;;;;3.20;1.20;;;;;;;40.02;25.69;98836.75;5119693;27;44272;-82
2022/09/07 08:58:52;;;;;;;2.03;1.50;;;;;;;40.36;25.66;98842.34;5134492;27;43799;-80
2022/09/07 09:01:22;;;;;;;1.90;1.25;;;;;;;41.08;24.29;98848.88;5137075;27;40509;-79
2022/09/07 09:03:50;;;;;;;2.03;1.33;;;;;;;42.16;23.61;98852.81;5135723;27;40562;-81
2022/09/07 09:06:27;;;;;;;1.30;1.00;;;;;;;42.98;22.51;98853.91;5119168;27;43729;-77
2022/09/07 09:09:20;;;;;;;2.63;1.30;;;;;;;43.54;21.78;98860.31;5134495;27;43273;-82
2022/09/07 09:11:57;;;;;;;2.30;1.27;;;;;;;43.81;21.94;98857.53;5119329;27;38715;-80
2022/09/07 09:14:31;;;;;;;2.90;1.30;;;;;;;44.02;21.44;98855.94;5118286;27;40870;-76
2022/09/07 09:17:02;;;;;;;2.92;1.33;;;;;;;43.50;21.46;98843.41;5151759;27;43587;-77
2022/09/07 09:19:42;;;;;;;2.53;1.17;;;;;;;43.25;21.88;98835.59;5135751;27;41519;-79
2022/09/07 09:22:14;;;;;;;1.80;1.02;;;;;;;42.31;22.58;98839.44;5133785;27;40047;-81
2022/09/07 09:24:46;;;;;;;2.53;1.30;;;;;;;40.97;23.95;98839.84;5118721;27;40723;-83
2022/09/07 09:27:14;;;;;;;2.17;1.50;;;;;;;39.85;24.97;98815.78;5136172;27;42067;-77
2022/09/07 09:29:42;;;;;;;4.32;1.60;;;;;;;39.25;25.65;98811.34;5118577;27;41357;-77
2022/09/07 09:32:33;;;;;;;1.70;1.25;;;;;;;38.66;26.52;98798.22;5136710;27;40008;-78
2022/09/07 09:35:04;;;;;;;2.60;1.77;;;;;;;38.06;27.19;98799.88;5118170;27;40628;-78
2022/09/07 09:37:39;;;;;;;5.07;2.03;;;;;;;37.42;28.03;98768.22;5132769;27;43600;-74
2022/09/07 09:40:18;;;;;;;1.83;1.50;;;;;;;37.15;28.44;98805.09;5117720;27;42857;-75
2022/09/07 09:42:46;;;;;;;2.08;1.65;;;;;;;37.04;28.28;98793.19;5150924;27;40838;-76
2022/09/07 09:48:34;;;;;;;2.67;2.00;;;;;;;35.94;29.40;98750.72;5134580;27;43031;-77
2022/09/07 09:51:04;;;;;;;3.73;1.83;;;;;;;35.76;30.49;98775.91;5118651;27;41629;-75
2022/09/07 09:53:39;;;;;;;3.20;1.67;;;;;;;35.46;30.70;98772.81;5134541;27;39121;-76
2022/09/07 09:56:09;;;;;;;1.30;1.20;;;;;;;35.36;31.08;98769.97;5150828;27;41796;-76
2022/09/07 09:58:39;;;;;;;2.30;1.43;;;;;;;35.17;31.39;98750.97;5134644;27;43260;-75
2022/09/07 10:01:20;;;;;;;2.50;1.47;;;;;;;35.43;31.22;98759.56;5135321;27;42694;-76
2022/09/07 10:03:49;;;;;;;2.20;1.40;;;;;;;35.35;31.33;98755.34;5117857;27;39792;-78
2022/09/07 10:06:19;;;;;;;1.53;1.20;;;;;;;35.43;31.63;98749.38;5135418;27;40628;-78
2022/09/07 10:08:57;;;;;;;2.53;1.47;;;;;;;35.49;31.21;98753.00;5135077;27;42991;-79
2022/09/07 10:11:43;;;;;;;3.30;1.60;;;;;;;35.21;31.68;98738.38;5134692;27;42328;-77
2022/09/07 10:14:20;;;;;;;3.30;1.70;;;;;;;35.40;31.52;98738.88;5117264;27;38444;-76
2022/09/07 10:16:50;;;;;;;4.20;1.97;;;;;;;35.98;31.27;98740.81;5118234;27;41373;-77
2022/09/07 10:19:27;;;;;;;3.43;1.50;;;;;;;36.84;29.77;98742.56;5134580;27;41964;-79
2022/09/07 10:21:57;;;;;;;2.97;1.77;;;;;;;36.84;30.25;98687.34;5118147;27;41107;-79
2022/09/07 10:24:28;;;;;;;2.60;1.40;;;;;;;37.60;29.53;98742.81;5134410;27;40343;-79
2022/09/07 10:26:56;;;;;;;3.27;1.87;;;;;;;37.47;29.04;98735.03;5135273;27;42179;-76
2022/09/07 10:29:30;;;;;;;2.13;1.30;;;;;;;37.05;29.55;98733.25;5133763;27;45089;-76
2022/09/07 10:32:19;;;;;;;3.87;1.63;;;;;;;36.39;30.56;98724.59;5131863;27;42922;-77
2022/09/07 10:35:02;;;;;;;1.93;1.50;;;;;;;35.71;30.95;98714.38;5133664;27;40154;-76
2022/09/07 10:37:43;;;;;;;4.90;1.70;;;;;;;35.11;31.82;98712.66;5117375;27;41496;-77
2022/09/07 10:40:24;;;;;;;1.77;1.50;;;;;;;34.53;32.40;98705.81;5117718;27;41505;-81
2022/09/07 10:43:00;;;;;;;2.10;1.23;;;;;;;34.14;33.36;98697.53;5135971;27;41235;-84
2022/09/07 10:45:37;;;;;;;2.67;1.40;;;;;;;33.73;33.88;98696.03;5132639;27;39662;-79
2022/09/07 10:48:12;;;;;;;2.40;1.00;;;;;;;33.25;34.28;98687.50;5117445;27;41824;-79
2022/09/07 10:50:47;;;;;;;3.50;1.57;;;;;;;32.98;35.30;98678.97;5150608;27;43378;-78
2022/09/07 10:53:34;;;;;;;2.07;1.60;;;;;;;32.76;35.06;98684.31;5134279;27;41589;-79
2022/09/07 10:56:10;;;;;;;2.10;1.83;;;;;;;32.43;35.59;98655.59;5135254;27;40954;-81
2022/09/07 10:58:49;;;;;;;2.07;1.33;;;;;;;33.21;35.10;98658.81;5116627;27;40995;-76
2022/09/07 11:01:30;;;;;;;1.40;1.10;;;;;;;34.00;33.64;98676.16;5134201;27;43106;-76
2022/09/07 11:04:10;;;;;;;2.90;1.23;;;;;;;34.54;33.42;98667.06;5116837;27;41333;-76
2022/09/07 11:06:41;;;;;;;1.73;1.20;;;;;;;35.36;32.23;98676.31;5152900;27;39305;-77
2022/09/07 11:09:29;;;;;;;2.33;1.30;;;;;;;36.34;31.04;98684.06;5132982;27;42283;-78
2022/09/07 11:12:04;;;;;;;2.20;1.30;;;;;;;37.26;29.52;98677.00;5117086;27;44502;-78
2022/09/07 11:14:38;;;;;;;2.10;1.33;;;;;;;38.19;28.73;98692.56;5151800;27;42190;-76
2022/09/07 11:17:15;;;;;;;1.10;1.00;;;;;;;38.99;27.65;98687.91;5136353;27;40607;-74
2022/09/07 11:19:51;;;;;;;1.45;1.35;;;;;;;40.14;25.43;98679.91;5155782;27;42467;-76
2022/09/07 11:22:28;;;;;;;2.90;1.23;;;;;;;40.68;24.54;98708.50;5120412;27;41998;-76
2022/09/07 11:24:59;;;;;;;2.17;1.63;;;;;;;40.70;24.67;98701.50;5136727;27;41540;-75
2022/09/07 11:27:42;;;;;;;3.78;1.40;;;;;;;40.15;25.17;98703.75;5137815;27;40062;-76
2022/09/07 11:30:19;;;;;;;1.67;1.23;;;;;;;38.99;26.13;98696.22;5120194;27;40741;-78
2022/09/07 11:32:55;;;;;;;4.10;1.53;;;;;;;38.01;27.16;98680.94;5120231;27;43744;-77
2022/09/07 11:35:34;;;;;;;3.30;1.43;;;;;;;37.24;28.39;98679.19;5154939;27;42267;-75
2022/09/07 11:38:10;;;;;;;2.17;1.40;;;;;;;36.68;28.81;98672.63;5137116;27;40164;-80
2022/09/07 11:40:48;;;;;;;2.40;1.40;;;;;;;36.80;28.79;98675.19;5120555;27;41203;-78
2022/09/07 11:43:22;;;;;;;3.87;1.77;;;;;;;37.05;28.51;98656.78;5137207;27;42865;-79
2022/09/07 11:45:55;;;;;;;3.42;1.50;;;;;;;39.00;27.02;98676.56;5135512;27;42232;-83
2022/09/07 11:48:28;;;;;;;2.85;1.02;;;;;;;41.68;24.21;98679.63;5154641;27;39795;-86
2022/09/07 11:51:00;;;;;;;1.48;1.10;;;;;;;43.70;21.70;98691.50;5138666;27;43097;-84
2022/09/07 11:53:31;;;;;;;2.75;1.17;;;;;;;45.76;19.67;98705.47;5120514;27;42857;-80
2022/09/07 11:56:04;;;;;;;2.35;1.27;;;;;;;46.97;18.10;98707.94;5138153;27;41974;-79
2022/09/07 11:58:55;;;;;;;1.02;0.93;;;;;;;46.01;19.09;98711.38;5135407;27;40142;-78